sensor_id;sensor_type;location;lat;lon;timestamp;temperature;humidity
45491;DHT22;31237;45.586;13.782;2022-09-09T00:00:32;20.60;96.50
45491;DHT22;31237;45.586;13.782;2022-09-09T00:03:21;20.60;96.40
45491;DHT22;31237;45.586;13.782;2022-09-09T00:06:08;20.70;96.30
45491;DHT22;31237;45.586;13.782;2022-09-09T00:11:11;20.70;96.00
45491;DHT22;31237;45.586;13.782;2022-09-09T00:13:46;20.80;95.90
45491;DHT22;31237;45.586;13.782;2022-09-09T00:21:14;20.80;95.50
45491;DHT22;31237;45.586;13.782;2022-09-09T00:23:53;20.80;95.30
45491;DHT22;31237;45.586;13.782;2022-09-09T00:29:05;20.80;95.00
45491;DHT22;31237;45.586;13.782;2022-09-09T00:31:35;20.70;94.80
45491;DHT22;31237;45.586;13.782;2022-09-09T00:34:16;20.60;94.90
45491;DHT22;31237;45.586;13.782;2022-09-09T00:36:43;20.60;94.80
45491;DHT22;31237;45.586;13.782;2022-09-09T00:50:05;20.50;94.80
45491;DHT22;31237;45.586;13.782;2022-09-09T00:56:06;20.40;94.70
45491;DHT22;31237;45.586;13.782;2022-09-09T00:58:07;20.40;94.70
45491;DHT22;31237;45.586;13.782;2022-09-09T01:01:08;20.40;94.70
45491;DHT22;31237;45.586;13.782;2022-09-09T01:03:53;20.40;94.60
45491;DHT22;31237;45.586;13.782;2022-09-09T01:06:32;20.40;94.60
45491;DHT22;31237;45.586;13.782;2022-09-09T01:09:26;20.40;94.60
45491;DHT22;31237;45.586;13.782;2022-09-09T01:17:15;20.40;94.50
45491;DHT22;31237;45.586;13.782;2022-09-09T01:22:22;20.40;94.30
45491;DHT22;31237;45.586;13.782;2022-09-09T01:25:07;20.40;94.40
45491;DHT22;31237;45.586;13.782;2022-09-09T01:27:38;20.50;94.40
45491;DHT22;31237;45.586;13.782;2022-09-09T01:30:13;20.50;94.30
45491;DHT22;31237;45.586;13.782;2022-09-09T01:32:43;20.50;94.60
45491;DHT22;31237;45.586;13.782;2022-09-09T01:35:15;20.60;94.30
45491;DHT22;31237;45.586;13.782;2022-09-09T01:37:44;20.50;94.20
45491;DHT22;31237;45.586;13.782;2022-09-09T01:40:10;20.60;94.20
45491;DHT22;31237;45.586;13.782;2022-09-09T01:42:36;20.50;94.30
45491;DHT22;31237;45.586;13.782;2022-09-09T01:45:02;20.60;94.30
45491;DHT22;31237;45.586;13.782;2022-09-09T01:47:29;20.60;94.30
45491;DHT22;31237;45.586;13.782;2022-09-09T01:49:55;20.60;94.30
45491;DHT22;31237;45.586;13.782;2022-09-09T01:52:20;20.60;94.30
45491;DHT22;31237;45.586;13.782;2022-09-09T01:54:46;20.60;94.20
45491;DHT22;31237;45.586;13.782;2022-09-09T02:02:23;20.50;94.20
45491;DHT22;31237;45.586;13.782;2022-09-09T02:04:54;20.50;94.30
45491;DHT22;31237;45.586;13.782;2022-09-09T02:13:18;20.50;94.40
45491;DHT22;31237;45.586;13.782;2022-09-09T02:15:47;20.50;94.40
45491;DHT22;31237;45.586;13.782;2022-09-09T02:18:15;20.50;94.50
45491;DHT22;31237;45.586;13.782;2022-09-09T02:20:44;20.50;94.50
45491;DHT22;31237;45.586;13.782;2022-09-09T02:23:11;20.50;94.50
45491;DHT22;31237;45.586;13.782;2022-09-09T02:25:40;20.50;94.50
45491;DHT22;31237;45.586;13.782;2022-09-09T02:28:08;20.50;94.50
45491;DHT22;31237;45.586;13.782;2022-09-09T02:30:35;20.40;94.50
45491;DHT22;31237;45.586;13.782;2022-09-09T02:33:05;20.50;94.60
45491;DHT22;31237;45.586;13.782;2022-09-09T02:35:32;20.40;94.60
45491;DHT22;31237;45.586;13.782;2022-09-09T02:38:04;20.50;94.60
45491;DHT22;31237;45.586;13.782;2022-09-09T02:40:31;20.50;94.60
45491;DHT22;31237;45.586;13.782;2022-09-09T02:42:57;20.40;94.50
45491;DHT22;31237;45.586;13.782;2022-09-09T02:45:31;20.40;94.50
45491;DHT22;31237;45.586;13.782;2022-09-09T02:48:20;20.40;94.60
45491;DHT22;31237;45.586;13.782;2022-09-09T02:50:59;20.40;94.60
45491;DHT22;31237;45.586;13.782;2022-09-09T02:54:10;20.40;94.60
45491;DHT22;31237;45.586;13.782;2022-09-09T02:56:42;20.40;94.60
45491;DHT22;31237;45.586;13.782;2022-09-09T02:59:09;20.40;94.50
45491;DHT22;31237;45.586;13.782;2022-09-09T03:01:35;20.40;94.50
45491;DHT22;31237;45.586;13.782;2022-09-09T03:04:02;20.30;94.50
45491;DHT22;31237;45.586;13.782;2022-09-09T03:06:30;20.30;94.50
45491;DHT22;31237;45.586;13.782;2022-09-09T03:08:56;20.30;94.60
45491;DHT22;31237;45.586;13.782;2022-09-09T03:11:22;20.30;94.70
45491;DHT22;31237;45.586;13.782;2022-09-09T03:13:48;20.30;94.80
45491;DHT22;31237;45.586;13.782;2022-09-09T03:16:14;20.30;94.80
45491;DHT22;31237;45.586;13.782;2022-09-09T03:18:40;20.30;94.80
45491;DHT22;31237;45.586;13.782;2022-09-09T03:21:06;20.30;94.80
45491;DHT22;31237;45.586;13.782;2022-09-09T03:23:32;20.30;94.70
45491;DHT22;31237;45.586;13.782;2022-09-09T03:25:57;20.30;94.70
45491;DHT22;31237;45.586;13.782;2022-09-09T03:28:24;20.30;94.90
45491;DHT22;31237;45.586;13.782;2022-09-09T03:30:59;20.30;94.70
45491;DHT22;31237;45.586;13.782;2022-09-09T03:33:25;20.30;94.60
45491;DHT22;31237;45.586;13.782;2022-09-09T03:35:50;20.20;94.60
45491;DHT22;31237;45.586;13.782;2022-09-09T03:38:16;20.20;94.70
45491;DHT22;31237;45.586;13.782;2022-09-09T03:40:50;20.20;94.70
45491;DHT22;31237;45.586;13.782;2022-09-09T03:43:16;20.20;94.70
45491;DHT22;31237;45.586;13.782;2022-09-09T03:45:46;20.10;94.60
45491;DHT22;31237;45.586;13.782;2022-09-09T03:48:16;20.10;94.60
45491;DHT22;31237;45.586;13.782;2022-09-09T03:50:52;20.10;94.60
45491;DHT22;31237;45.586;13.782;2022-09-09T03:53:20;20.10;94.60
45491;DHT22;31237;45.586;13.782;2022-09-09T03:55:47;20.10;94.60
45491;DHT22;31237;45.586;13.782;2022-09-09T03:58:14;20.10;94.60
45491;DHT22;31237;45.586;13.782;2022-09-09T04:00:40;20.10;94.60
45491;DHT22;31237;45.586;13.782;2022-09-09T04:03:11;20.00;94.60
45491;DHT22;31237;45.586;13.782;2022-09-09T04:05:39;20.00;94.60
45491;DHT22;31237;45.586;13.782;2022-09-09T04:08:08;20.00;94.50
45491;DHT22;31237;45.586;13.782;2022-09-09T04:10:34;20.00;94.50
45491;DHT22;31237;45.586;13.782;2022-09-09T04:13:03;20.00;94.50
45491;DHT22;31237;45.586;13.782;2022-09-09T04:15:30;19.90;94.40
45491;DHT22;31237;45.586;13.782;2022-09-09T04:17:56;19.90;94.40
45491;DHT22;31237;45.586;13.782;2022-09-09T04:20:22;19.90;94.40
45491;DHT22;31237;45.586;13.782;2022-09-09T04:22:48;19.90;94.40
45491;DHT22;31237;45.586;13.782;2022-09-09T04:25:14;19.90;94.40
45491;DHT22;31237;45.586;13.782;2022-09-09T04:27:40;19.90;94.40
45491;DHT22;31237;45.586;13.782;2022-09-09T04:30:06;19.80;94.40
45491;DHT22;31237;45.586;13.782;2022-09-09T04:32:35;19.80;94.40
45491;DHT22;31237;45.586;13.782;2022-09-09T04:35:02;19.80;94.40
45491;DHT22;31237;45.586;13.782;2022-09-09T04:37:28;19.80;94.40
45491;DHT22;31237;45.586;13.782;2022-09-09T04:39:54;19.70;94.40
45491;DHT22;31237;45.586;13.782;2022-09-09T04:42:19;19.70;94.40
45491;DHT22;31237;45.586;13.782;2022-09-09T04:44:45;19.70;94.50
45491;DHT22;31237;45.586;13.782;2022-09-09T04:47:11;19.70;94.50
45491;DHT22;31237;45.586;13.782;2022-09-09T04:49:37;19.70;94.60
45491;DHT22;31237;45.586;13.782;2022-09-09T04:52:04;19.70;94.60
45491;DHT22;31237;45.586;13.782;2022-09-09T04:54:30;19.70;94.60
45491;DHT22;31237;45.586;13.782;2022-09-09T04:56:55;19.70;94.70
45491;DHT22;31237;45.586;13.782;2022-09-09T04:59:21;19.70;94.70
45491;DHT22;31237;45.586;13.782;2022-09-09T05:01:48;19.70;94.70
45491;DHT22;31237;45.586;13.782;2022-09-09T05:04:15;19.60;94.70
45491;DHT22;31237;45.586;13.782;2022-09-09T05:06:41;19.60;94.70
45491;DHT22;31237;45.586;13.782;2022-09-09T05:09:08;19.60;94.70
45491;DHT22;31237;45.586;13.782;2022-09-09T05:11:34;19.60;94.80
45491;DHT22;31237;45.586;13.782;2022-09-09T05:14:04;19.60;94.90
45491;DHT22;31237;45.586;13.782;2022-09-09T05:16:30;19.70;94.90
45491;DHT22;31237;45.586;13.782;2022-09-09T05:18:56;19.70;95.00
45491;DHT22;31237;45.586;13.782;2022-09-09T05:21:23;19.70;95.00
45491;DHT22;31237;45.586;13.782;2022-09-09T05:23:49;19.70;95.00
45491;DHT22;31237;45.586;13.782;2022-09-09T05:26:18;19.70;95.00
45491;DHT22;31237;45.586;13.782;2022-09-09T05:28:44;19.70;95.00
45491;DHT22;31237;45.586;13.782;2022-09-09T05:31:12;19.80;95.10
45491;DHT22;31237;45.586;13.782;2022-09-09T05:33:39;19.80;95.10
45491;DHT22;31237;45.586;13.782;2022-09-09T05:36:11;19.80;95.10
45491;DHT22;31237;45.586;13.782;2022-09-09T05:38:39;19.90;95.20
45491;DHT22;31237;45.586;13.782;2022-09-09T05:41:06;19.90;95.20
45491;DHT22;31237;45.586;13.782;2022-09-09T05:43:33;19.90;95.20
45491;DHT22;31237;45.586;13.782;2022-09-09T05:46:09;20.00;95.20
45491;DHT22;31237;45.586;13.782;2022-09-09T05:48:40;20.00;95.20
45491;DHT22;31237;45.586;13.782;2022-09-09T05:51:10;20.10;95.20
45491;DHT22;31237;45.586;13.782;2022-09-09T05:53:47;20.10;95.30
45491;DHT22;31237;45.586;13.782;2022-09-09T05:56:18;20.20;95.30
45491;DHT22;31237;45.586;13.782;2022-09-09T05:58:44;20.30;95.30
45491;DHT22;31237;45.586;13.782;2022-09-09T06:01:13;20.30;95.30
45491;DHT22;31237;45.586;13.782;2022-09-09T06:03:40;20.40;95.30
45491;DHT22;31237;45.586;13.782;2022-09-09T06:06:08;20.50;95.20
45491;DHT22;31237;45.586;13.782;2022-09-09T06:08:35;20.60;95.20
45491;DHT22;31237;45.586;13.782;2022-09-09T06:11:15;20.70;95.20
45491;DHT22;31237;45.586;13.782;2022-09-09T06:13:42;20.80;95.20
45491;DHT22;31237;45.586;13.782;2022-09-09T06:16:09;21.00;95.10
45491;DHT22;31237;45.586;13.782;2022-09-09T06:18:40;21.10;95.00
45491;DHT22;31237;45.586;13.782;2022-09-09T06:21:08;21.20;94.90
45491;DHT22;31237;45.586;13.782;2022-09-09T06:23:34;21.30;94.60
45491;DHT22;31237;45.586;13.782;2022-09-09T06:26:06;21.40;94.50
45491;DHT22;31237;45.586;13.782;2022-09-09T06:28:34;21.50;94.40
45491;DHT22;31237;45.586;13.782;2022-09-09T06:31:02;21.60;94.30
45491;DHT22;31237;45.586;13.782;2022-09-09T06:33:34;21.70;94.20
45491;DHT22;31237;45.586;13.782;2022-09-09T06:36:02;21.90;94.00
45491;DHT22;31237;45.586;13.782;2022-09-09T06:38:31;22.00;93.80
45491;DHT22;31237;45.586;13.782;2022-09-09T06:40:58;22.10;93.60
45491;DHT22;31237;45.586;13.782;2022-09-09T06:43:25;22.20;93.40
45491;DHT22;31237;45.586;13.782;2022-09-09T06:46:03;22.30;93.20
45491;DHT22;31237;45.586;13.782;2022-09-09T06:48:29;22.50;93.10
45491;DHT22;31237;45.586;13.782;2022-09-09T06:51:03;22.50;92.80
45491;DHT22;31237;45.586;13.782;2022-09-09T06:53:29;22.50;92.50
45491;DHT22;31237;45.586;13.782;2022-09-09T06:55:54;22.60;92.40
45491;DHT22;31237;45.586;13.782;2022-09-09T06:58:21;22.60;92.20
45491;DHT22;31237;45.586;13.782;2022-09-09T07:00:49;22.70;92.50
45491;DHT22;31237;45.586;13.782;2022-09-09T07:03:15;22.70;92.10
45491;DHT22;31237;45.586;13.782;2022-09-09T07:05:41;22.80;92.10
45491;DHT22;31237;45.586;13.782;2022-09-09T07:08:06;22.90;92.00
45491;DHT22;31237;45.586;13.782;2022-09-09T07:10:32;23.00;91.90
45491;DHT22;31237;45.586;13.782;2022-09-09T07:12:59;23.00;91.70
45491;DHT22;31237;45.586;13.782;2022-09-09T07:15:25;23.10;91.70
45491;DHT22;31237;45.586;13.782;2022-09-09T07:17:51;23.20;91.50
45491;DHT22;31237;45.586;13.782;2022-09-09T07:20:19;23.30;91.40
45491;DHT22;31237;45.586;13.782;2022-09-09T07:22:45;23.40;91.20
45491;DHT22;31237;45.586;13.782;2022-09-09T07:25:11;23.60;91.00
45491;DHT22;31237;45.586;13.782;2022-09-09T07:27:37;23.70;90.70
45491;DHT22;31237;45.586;13.782;2022-09-09T07:30:03;23.80;90.50
45491;DHT22;31237;45.586;13.782;2022-09-09T07:32:29;23.90;90.30
45491;DHT22;31237;45.586;13.782;2022-09-09T07:34:56;24.10;90.10
45491;DHT22;31237;45.586;13.782;2022-09-09T07:37:23;24.20;89.80
45491;DHT22;31237;45.586;13.782;2022-09-09T07:39:49;24.30;89.60
45491;DHT22;31237;45.586;13.782;2022-09-09T07:42:16;24.50;89.00
45491;DHT22;31237;45.586;13.782;2022-09-09T07:44:42;24.70;88.10
45491;DHT22;31237;45.586;13.782;2022-09-09T07:47:07;24.90;87.00
45491;DHT22;31237;45.586;13.782;2022-09-09T07:49:33;25.10;85.70
45491;DHT22;31237;45.586;13.782;2022-09-09T07:52:00;25.20;84.70
45491;DHT22;31237;45.586;13.782;2022-09-09T07:54:26;25.40;84.50
45491;DHT22;31237;45.586;13.782;2022-09-09T07:56:52;25.50;82.80
45491;DHT22;31237;45.586;13.782;2022-09-09T07:59:18;25.60;82.20
45491;DHT22;31237;45.586;13.782;2022-09-09T08:01:49;25.60;81.80
45491;DHT22;31237;45.586;13.782;2022-09-09T08:04:21;25.70;80.80
45491;DHT22;31237;45.586;13.782;2022-09-09T08:06:57;25.70;80.10
45491;DHT22;31237;45.586;13.782;2022-09-09T08:09:24;25.80;79.80
45491;DHT22;31237;45.586;13.782;2022-09-09T08:11:52;25.90;79.80
45491;DHT22;31237;45.586;13.782;2022-09-09T08:14:18;25.90;79.50
45491;DHT22;31237;45.586;13.782;2022-09-09T08:16:46;26.00;78.60
45491;DHT22;31237;45.586;13.782;2022-09-09T08:19:13;26.00;78.10
45491;DHT22;31237;45.586;13.782;2022-09-09T08:21:41;26.00;77.70
45491;DHT22;31237;45.586;13.782;2022-09-09T08:24:09;25.90;77.60
45491;DHT22;31237;45.586;13.782;2022-09-09T08:26:42;25.80;77.50
45491;DHT22;31237;45.586;13.782;2022-09-09T08:29:10;25.70;77.80
45491;DHT22;31237;45.586;13.782;2022-09-09T08:31:38;25.60;78.00
45491;DHT22;31237;45.586;13.782;2022-09-09T08:34:05;25.60;78.40
45491;DHT22;31237;45.586;13.782;2022-09-09T08:36:34;25.60;78.50
45491;DHT22;31237;45.586;13.782;2022-09-09T08:39:00;25.60;78.80
45491;DHT22;31237;45.586;13.782;2022-09-09T08:41:36;25.70;78.90
45491;DHT22;31237;45.586;13.782;2022-09-09T08:44:09;25.70;78.70
45491;DHT22;31237;45.586;13.782;2022-09-09T08:52:30;26.10;78.00
45491;DHT22;31237;45.586;13.782;2022-09-09T08:55:32;26.20;77.70
45491;DHT22;31237;45.586;13.782;2022-09-09T08:58:09;26.30;77.30
45491;DHT22;31237;45.586;13.782;2022-09-09T09:11:51;26.50;75.70
45491;DHT22;31237;45.586;13.782;2022-09-09T09:14:21;26.40;76.00
45491;DHT22;31237;45.586;13.782;2022-09-09T09:17:02;26.30;76.10
45491;DHT22;31237;45.586;13.782;2022-09-09T09:19:29;26.30;76.60
45491;DHT22;31237;45.586;13.782;2022-09-09T09:22:50;26.20;76.80
45491;DHT22;31237;45.586;13.782;2022-09-09T09:27:58;25.80;77.80
45491;DHT22;31237;45.586;13.782;2022-09-09T09:30:41;25.70;78.50
45491;DHT22;31237;45.586;13.782;2022-09-09T09:43:06;23.70;75.50
45491;DHT22;31237;45.586;13.782;2022-09-09T09:45:43;21.90;78.70
45491;DHT22;31237;45.586;13.782;2022-09-09T09:48:13;20.70;83.10
45491;DHT22;31237;45.586;13.782;2022-09-09T09:50:57;20.10;85.90
45491;DHT22;31237;45.586;13.782;2022-09-09T09:53:29;19.70;87.60
45491;DHT22;31237;45.586;13.782;2022-09-09T09:56:10;19.30;88.80
45491;DHT22;31237;45.586;13.782;2022-09-09T10:01:34;19.00;90.60
45491;DHT22;31237;45.586;13.782;2022-09-09T10:04:01;18.80;91.00
45491;DHT22;31237;45.586;13.782;2022-09-09T10:06:35;18.80;91.50
45491;DHT22;31237;45.586;13.782;2022-09-09T10:09:17;18.70;91.90
45491;DHT22;31237;45.586;13.782;2022-09-09T10:22:35;18.90;93.20
45491;DHT22;31237;45.586;13.782;2022-09-09T10:31:17;19.00;93.70
45491;DHT22;31237;45.586;13.782;2022-09-09T10:36:28;19.40;94.40
45491;DHT22;31237;45.586;13.782;2022-09-09T10:41:57;19.60;94.40
45491;DHT22;31237;45.586;13.782;2022-09-09T10:45:10;19.70;94.50
45491;DHT22;31237;45.586;13.782;2022-09-09T10:53:36;19.90;94.50
45491;DHT22;31237;45.586;13.782;2022-09-09T10:56:10;20.00;94.50
45491;DHT22;31237;45.586;13.782;2022-09-09T10:58:46;20.10;94.70
45491;DHT22;31237;45.586;13.782;2022-09-09T11:01:24;20.20;95.00
45491;DHT22;31237;45.586;13.782;2022-09-09T11:04:38;20.30;95.10
45491;DHT22;31237;45.586;13.782;2022-09-09T11:07:07;20.40;95.10
45491;DHT22;31237;45.586;13.782;2022-09-09T11:09:39;20.50;95.20
45491;DHT22;31237;45.586;13.782;2022-09-09T11:12:13;20.70;95.60
45491;DHT22;31237;45.586;13.782;2022-09-09T11:14:57;21.00;95.80
45491;DHT22;31237;45.586;13.782;2022-09-09T11:17:42;21.20;95.70
45491;DHT22;31237;45.586;13.782;2022-09-09T11:20:13;21.40;95.60
45491;DHT22;31237;45.586;13.782;2022-09-09T11:23:13;21.60;95.40
45491;DHT22;31237;45.586;13.782;2022-09-09T11:25:51;21.80;95.30
45491;DHT22;31237;45.586;13.782;2022-09-09T11:41:38;22.40;94.90
45491;DHT22;31237;45.586;13.782;2022-09-09T11:44:28;22.50;94.90
45491;DHT22;31237;45.586;13.782;2022-09-09T11:46:55;22.60;94.60
45491;DHT22;31237;45.586;13.782;2022-09-09T11:49:28;22.60;94.50
45491;DHT22;31237;45.586;13.782;2022-09-09T11:51:54;22.70;94.60
45491;DHT22;31237;45.586;13.782;2022-09-09T11:54:30;22.80;94.60
45491;DHT22;31237;45.586;13.782;2022-09-09T11:56:57;22.90;94.60
45491;DHT22;31237;45.586;13.782;2022-09-09T11:59:30;23.00;94.60
45491;DHT22;31237;45.586;13.782;2022-09-09T12:01:59;23.20;94.60
45491;DHT22;31237;45.586;13.782;2022-09-09T12:04:42;23.30;94.40
45491;DHT22;31237;45.586;13.782;2022-09-09T12:09:43;23.50;94.20
45491;DHT22;31237;45.586;13.782;2022-09-09T12:17:22;23.70;94.00
45491;DHT22;31237;45.586;13.782;2022-09-09T12:25:31;23.90;93.50
45491;DHT22;31237;45.586;13.782;2022-09-09T12:33:17;24.10;93.40
45491;DHT22;31237;45.586;13.782;2022-09-09T12:35:45;24.20;93.20
45491;DHT22;31237;45.586;13.782;2022-09-09T12:38:17;24.20;93.10
45491;DHT22;31237;45.586;13.782;2022-09-09T12:40:55;24.30;92.90
45491;DHT22;31237;45.586;13.782;2022-09-09T12:43:22;24.30;92.80
45491;DHT22;31237;45.586;13.782;2022-09-09T12:45:49;24.30;92.70
45491;DHT22;31237;45.586;13.782;2022-09-09T12:48:27;24.40;92.60
45491;DHT22;31237;45.586;13.782;2022-09-09T12:50:54;24.40;92.40
45491;DHT22;31237;45.586;13.782;2022-09-09T12:55:57;24.50;92.00
45491;DHT22;31237;45.586;13.782;2022-09-09T12:58:29;24.60;92.00
45491;DHT22;31237;45.586;13.782;2022-09-09T14:32:57;25.10;86.00
45491;DHT22;31237;45.586;13.782;2022-09-09T14:35:23;25.20;86.30
45491;DHT22;31237;45.586;13.782;2022-09-09T14:37:50;25.20;86.30
45491;DHT22;31237;45.586;13.782;2022-09-09T14:40:15;25.30;86.10
45491;DHT22;31237;45.586;13.782;2022-09-09T14:42:42;25.40;85.80
45491;DHT22;31237;45.586;13.782;2022-09-09T14:45:08;25.40;85.70
45491;DHT22;31237;45.586;13.782;2022-09-09T14:47:33;25.50;85.50
45491;DHT22;31237;45.586;13.782;2022-09-09T14:49:59;25.60;85.10
45491;DHT22;31237;45.586;13.782;2022-09-09T14:52:26;25.60;84.60
45491;DHT22;31237;45.586;13.782;2022-09-09T14:54:52;25.70;84.30
45491;DHT22;31237;45.586;13.782;2022-09-09T14:57:17;25.70;84.00
45491;DHT22;31237;45.586;13.782;2022-09-09T14:59:43;25.80;83.70
45491;DHT22;31237;45.586;13.782;2022-09-09T15:02:09;25.80;83.40
45491;DHT22;31237;45.586;13.782;2022-09-09T15:04:35;25.80;83.00
45491;DHT22;31237;45.586;13.782;2022-09-09T15:07:00;25.90;82.30
45491;DHT22;31237;45.586;13.782;2022-09-09T15:09:27;25.90;81.80
45491;DHT22;31237;45.586;13.782;2022-09-09T15:11:52;25.90;81.60
45491;DHT22;31237;45.586;13.782;2022-09-09T15:14:18;26.00;81.00
45491;DHT22;31237;45.586;13.782;2022-09-09T15:16:44;26.00;80.20
45491;DHT22;31237;45.586;13.782;2022-09-09T15:19:09;26.00;79.80
45491;DHT22;31237;45.586;13.782;2022-09-09T15:21:37;26.10;79.20
45491;DHT22;31237;45.586;13.782;2022-09-09T15:24:04;26.10;78.20
45491;DHT22;31237;45.586;13.782;2022-09-09T15:26:30;26.10;75.90
45491;DHT22;31237;45.586;13.782;2022-09-09T15:28:56;26.10;74.10
45491;DHT22;31237;45.586;13.782;2022-09-09T15:31:30;26.10;74.00
45491;DHT22;31237;45.586;13.782;2022-09-09T15:34:01;26.00;74.20
45491;DHT22;31237;45.586;13.782;2022-09-09T15:36:47;26.00;73.90
45491;DHT22;31237;45.586;13.782;2022-09-09T15:39:15;25.90;74.20
45491;DHT22;31237;45.586;13.782;2022-09-09T15:41:45;25.70;74.40
45491;DHT22;31237;45.586;13.782;2022-09-09T15:44:12;25.70;74.30
45491;DHT22;31237;45.586;13.782;2022-09-09T15:46:43;25.60;72.70
45491;DHT22;31237;45.586;13.782;2022-09-09T15:49:11;25.40;71.40
45491;DHT22;31237;45.586;13.782;2022-09-09T15:51:40;24.90;71.70
45491;DHT22;31237;45.586;13.782;2022-09-09T15:54:06;24.40;72.90
45491;DHT22;31237;45.586;13.782;2022-09-09T15:56:33;24.00;74.70
45491;DHT22;31237;45.586;13.782;2022-09-09T15:58:59;23.50;76.30
45491;DHT22;31237;45.586;13.782;2022-09-09T16:01:26;23.20;77.70
45491;DHT22;31237;45.586;13.782;2022-09-09T16:03:52;23.00;78.50
45491;DHT22;31237;45.586;13.782;2022-09-09T16:06:20;22.80;79.20
45491;DHT22;31237;45.586;13.782;2022-09-09T16:08:49;22.70;79.60
45491;DHT22;31237;45.586;13.782;2022-09-09T16:11:23;22.70;80.00
45491;DHT22;31237;45.586;13.782;2022-09-09T16:13:50;22.60;80.20
45491;DHT22;31237;45.586;13.782;2022-09-09T16:16:18;22.60;80.40
45491;DHT22;31237;45.586;13.782;2022-09-09T16:18:49;22.70;80.70
45491;DHT22;31237;45.586;13.782;2022-09-09T16:21:18;22.70;81.00
45491;DHT22;31237;45.586;13.782;2022-09-09T16:23:45;22.70;81.20
45491;DHT22;31237;45.586;13.782;2022-09-09T16:26:12;22.80;81.30
45491;DHT22;31237;45.586;13.782;2022-09-09T16:28:39;22.80;81.30
45491;DHT22;31237;45.586;13.782;2022-09-09T16:31:06;22.90;81.40
45491;DHT22;31237;45.586;13.782;2022-09-09T16:33:32;22.90;81.50
45491;DHT22;31237;45.586;13.782;2022-09-09T16:35:58;23.00;81.60
45491;DHT22;31237;45.586;13.782;2022-09-09T16:38:23;23.00;81.60
45491;DHT22;31237;45.586;13.782;2022-09-09T16:40:49;23.00;81.70
45491;DHT22;31237;45.586;13.782;2022-09-09T16:43:15;23.00;81.80
45491;DHT22;31237;45.586;13.782;2022-09-09T16:45:45;23.00;82.00
45491;DHT22;31237;45.586;13.782;2022-09-09T16:48:11;22.90;82.20
45491;DHT22;31237;45.586;13.782;2022-09-09T16:50:37;22.90;82.40
45491;DHT22;31237;45.586;13.782;2022-09-09T16:53:04;22.90;82.60
45491;DHT22;31237;45.586;13.782;2022-09-09T16:55:31;22.80;82.90
45491;DHT22;31237;45.586;13.782;2022-09-09T16:57:57;22.80;83.30
45491;DHT22;31237;45.586;13.782;2022-09-09T17:00:23;22.70;83.40
45491;DHT22;31237;45.586;13.782;2022-09-09T17:02:49;22.60;83.70
45491;DHT22;31237;45.586;13.782;2022-09-09T17:05:14;22.50;84.20
45491;DHT22;31237;45.586;13.782;2022-09-09T17:07:40;22.40;84.50
45491;DHT22;31237;45.586;13.782;2022-09-09T17:10:06;22.40;84.90
45491;DHT22;31237;45.586;13.782;2022-09-09T17:12:32;22.30;85.30
45491;DHT22;31237;45.586;13.782;2022-09-09T17:14:58;22.30;85.60
45491;DHT22;31237;45.586;13.782;2022-09-09T17:17:26;22.20;85.80
45491;DHT22;31237;45.586;13.782;2022-09-09T17:19:52;22.20;86.00
45491;DHT22;31237;45.586;13.782;2022-09-09T17:22:18;22.10;86.20
45491;DHT22;31237;45.586;13.782;2022-09-09T17:24:45;22.10;86.20
45491;DHT22;31237;45.586;13.782;2022-09-09T17:27:11;21.90;86.40
45491;DHT22;31237;45.586;13.782;2022-09-09T17:29:38;21.90;86.80
45491;DHT22;31237;45.586;13.782;2022-09-09T17:32:05;21.80;87.00
45491;DHT22;31237;45.586;13.782;2022-09-09T17:34:36;21.70;87.30
45491;DHT22;31237;45.586;13.782;2022-09-09T17:37:02;21.60;87.60
45491;DHT22;31237;45.586;13.782;2022-09-09T17:39:27;21.50;87.90
45491;DHT22;31237;45.586;13.782;2022-09-09T17:41:54;21.40;88.20
45491;DHT22;31237;45.586;13.782;2022-09-09T17:44:20;21.30;88.40
45491;DHT22;31237;45.586;13.782;2022-09-09T17:46:46;21.30;88.70
45491;DHT22;31237;45.586;13.782;2022-09-09T17:49:13;21.20;88.90
45491;DHT22;31237;45.586;13.782;2022-09-09T17:51:41;21.20;89.20
45491;DHT22;31237;45.586;13.782;2022-09-09T17:54:18;21.10;89.40
45491;DHT22;31237;45.586;13.782;2022-09-09T17:56:45;21.10;89.60
45491;DHT22;31237;45.586;13.782;2022-09-09T17:59:13;21.00;89.80
45491;DHT22;31237;45.586;13.782;2022-09-09T18:01:42;20.90;90.00
45491;DHT22;31237;45.586;13.782;2022-09-09T18:04:09;20.90;90.10
45491;DHT22;31237;45.586;13.782;2022-09-09T18:06:50;20.80;90.20
45491;DHT22;31237;45.586;13.782;2022-09-09T18:09:21;20.80;90.30
45491;DHT22;31237;45.586;13.782;2022-09-09T18:11:51;20.70;90.30
45491;DHT22;31237;45.586;13.782;2022-09-09T18:14:21;20.70;90.40
45491;DHT22;31237;45.586;13.782;2022-09-09T18:16:49;20.60;90.50
45491;DHT22;31237;45.586;13.782;2022-09-09T18:19:18;20.60;90.60
45491;DHT22;31237;45.586;13.782;2022-09-09T18:21:44;20.50;90.70
45491;DHT22;31237;45.586;13.782;2022-09-09T18:24:12;20.50;90.80
45491;DHT22;31237;45.586;13.782;2022-09-09T18:26:39;20.40;90.90
45491;DHT22;31237;45.586;13.782;2022-09-09T18:29:11;20.40;90.90
45491;DHT22;31237;45.586;13.782;2022-09-09T18:31:38;20.40;90.90
45491;DHT22;31237;45.586;13.782;2022-09-09T18:34:06;20.30;91.00
45491;DHT22;31237;45.586;13.782;2022-09-09T18:38:38;20.20;90.90
45491;DHT22;31237;45.586;13.782;2022-09-09T18:41:19;20.20;91.30
45491;DHT22;31237;45.586;13.782;2022-09-09T18:43:46;20.20;91.40
45491;DHT22;31237;45.586;13.782;2022-09-09T18:46:14;20.20;91.50
45491;DHT22;31237;45.586;13.782;2022-09-09T18:48:42;20.10;91.50
45491;DHT22;31237;45.586;13.782;2022-09-09T18:51:11;20.10;91.60
45491;DHT22;31237;45.586;13.782;2022-09-09T18:53:37;20.10;91.70
45491;DHT22;31237;45.586;13.782;2022-09-09T18:56:09;20.10;91.70
45491;DHT22;31237;45.586;13.782;2022-09-09T18:58:35;20.10;91.80
45491;DHT22;31237;45.586;13.782;2022-09-09T19:01:02;20.00;91.90
45491;DHT22;31237;45.586;13.782;2022-09-09T19:03:29;20.00;91.90
45491;DHT22;31237;45.586;13.782;2022-09-09T19:06:26;20.00;92.00
45491;DHT22;31237;45.586;13.782;2022-09-09T19:08:52;20.00;92.00
45491;DHT22;31237;45.586;13.782;2022-09-09T19:11:21;19.90;92.10
45491;DHT22;31237;45.586;13.782;2022-09-09T19:13:55;19.90;92.10
45491;DHT22;31237;45.586;13.782;2022-09-09T19:16:22;19.90;92.20
45491;DHT22;31237;45.586;13.782;2022-09-09T19:18:49;19.90;92.20
45491;DHT22;31237;45.586;13.782;2022-09-09T19:23:52;19.80;92.30
45491;DHT22;31237;45.586;13.782;2022-09-09T19:26:18;19.90;92.40